sensor_id;sensor_type;location;lat;lon;timestamp;pressure;altitude;pressure_sealevel;temperature
80496;BMP180;69819;48.798;11.770;2024-01-25T00:01:18;98437.00;;;9.80
80496;BMP180;69819;48.798;11.770;2024-01-25T00:03:44;98439.00;;;9.80
80496;BMP180;69819;48.798;11.770;2024-01-25T00:06:09;98446.00;;;9.90
80496;BMP180;69819;48.798;11.770;2024-01-25T00:08:35;98423.00;;;9.90
80496;BMP180;69819;48.798;11.770;2024-01-25T00:11:04;98432.00;;;9.90
80496;BMP180;69819;48.798;11.770;2024-01-25T00:13:31;98396.00;;;10.00
80496;BMP180;69819;48.798;11.770;2024-01-25T00:15:57;98416.00;;;10.00
80496;BMP180;69819;48.798;11.770;2024-01-25T00:18:23;98424.00;;;10.10
80496;BMP180;69819;48.798;11.770;2024-01-25T00:20:49;98450.00;;;10.10
80496;BMP180;69819;48.798;11.770;2024-01-25T00:23:14;98425.00;;;10.20
80496;BMP180;69819;48.798;11.770;2024-01-25T00:25:40;98418.00;;;10.20
80496;BMP180;69819;48.798;11.770;2024-01-25T00:28:06;98432.00;;;10.20
80496;BMP180;69819;48.798;11.770;2024-01-25T00:30:32;98455.00;;;10.30
80496;BMP180;69819;48.798;11.770;2024-01-25T00:32:58;98449.00;;;10.40
80496;BMP180;69819;48.798;11.770;2024-01-25T00:35:27;98433.00;;;10.40
80496;BMP180;69819;48.798;11.770;2024-01-25T00:37:53;98455.00;;;10.40
80496;BMP180;69819;48.798;11.770;2024-01-25T00:40:19;98440.00;;;10.50
80496;BMP180;69819;48.798;11.770;2024-01-25T00:42:46;98419.00;;;10.50
80496;BMP180;69819;48.798;11.770;2024-01-25T00:45:23;98424.00;;;10.50
80496;BMP180;69819;48.798;11.770;2024-01-25T00:47:50;98426.00;;;10.60
80496;BMP180;69819;48.798;11.770;2024-01-25T00:50:17;98403.00;;;10.60
80496;BMP180;69819;48.798;11.770;2024-01-25T00:52:52;98409.00;;;10.60
80496;BMP180;69819;48.798;11.770;2024-01-25T00:55:19;98421.00;;;10.60
80496;BMP180;69819;48.798;11.770;2024-01-25T00:57:45;98446.00;;;10.70
80496;BMP180;69819;48.798;11.770;2024-01-25T01:00:12;98455.00;;;10.70
80496;BMP180;69819;48.798;11.770;2024-01-25T01:02:44;98438.00;;;10.70
80496;BMP180;69819;48.798;11.770;2024-01-25T01:05:11;98442.00;;;10.70
80496;BMP180;69819;48.798;11.770;2024-01-25T01:07:38;98457.00;;;10.80
80496;BMP180;69819;48.798;11.770;2024-01-25T01:10:08;98462.00;;;10.80
80496;BMP180;69819;48.798;11.770;2024-01-25T01:12:34;98440.00;;;10.80
80496;BMP180;69819;48.798;11.770;2024-01-25T01:15:00;98437.00;;;10.70
80496;BMP180;69819;48.798;11.770;2024-01-25T01:17:26;98435.00;;;10.80
80496;BMP180;69819;48.798;11.770;2024-01-25T01:19:52;98405.00;;;10.80
80496;BMP180;69819;48.798;11.770;2024-01-25T01:22:18;98434.00;;;10.70
80496;BMP180;69819;48.798;11.770;2024-01-25T01:24:44;98459.00;;;10.70
80496;BMP180;69819;48.798;11.770;2024-01-25T01:27:10;98403.00;;;10.70
80496;BMP180;69819;48.798;11.770;2024-01-25T01:29:35;98446.00;;;10.70
80496;BMP180;69819;48.798;11.770;2024-01-25T01:32:01;98442.00;;;10.70
80496;BMP180;69819;48.798;11.770;2024-01-25T01:34:28;98447.00;;;10.70
80496;BMP180;69819;48.798;11.770;2024-01-25T01:36:53;98446.00;;;10.60
80496;BMP180;69819;48.798;11.770;2024-01-25T01:39:19;98439.00;;;10.60
80496;BMP180;69819;48.798;11.770;2024-01-25T01:41:48;98400.00;;;10.50
80496;BMP180;69819;48.798;11.770;2024-01-25T01:44:15;98410.00;;;10.50
80496;BMP180;69819;48.798;11.770;2024-01-25T01:46:41;98443.00;;;10.50
80496;BMP180;69819;48.798;11.770;2024-01-25T01:49:11;98424.00;;;10.40
80496;BMP180;69819;48.798;11.770;2024-01-25T01:51:38;98424.00;;;10.40
80496;BMP180;69819;48.798;11.770;2024-01-25T01:54:09;98409.00;;;10.30
80496;BMP180;69819;48.798;11.770;2024-01-25T01:56:35;98430.00;;;10.30
80496;BMP180;69819;48.798;11.770;2024-01-25T01:59:04;98432.00;;;10.30
80496;BMP180;69819;48.798;11.770;2024-01-25T02:01:32;98409.00;;;10.30
80496;BMP180;69819;48.798;11.770;2024-01-25T02:03:57;98395.00;;;10.20
80496;BMP180;69819;48.798;11.770;2024-01-25T02:06:27;98428.00;;;10.20
80496;BMP180;69819;48.798;11.770;2024-01-25T02:08:53;98409.00;;;10.20
80496;BMP180;69819;48.798;11.770;2024-01-25T02:11:19;98396.00;;;10.20
80496;BMP180;69819;48.798;11.770;2024-01-25T02:13:45;98397.00;;;10.20
80496;BMP180;69819;48.798;11.770;2024-01-25T02:16:13;98415.00;;;10.20
80496;BMP180;69819;48.798;11.770;2024-01-25T02:18:41;98420.00;;;10.20
80496;BMP180;69819;48.798;11.770;2024-01-25T02:21:07;98418.00;;;10.20
80496;BMP180;69819;48.798;11.770;2024-01-25T02:23:34;98398.00;;;10.10
80496;BMP180;69819;48.798;11.770;2024-01-25T02:25:59;98415.00;;;10.10
80496;BMP180;69819;48.798;11.770;2024-01-25T02:28:25;98419.00;;;10.10
80496;BMP180;69819;48.798;11.770;2024-01-25T02:30:51;98409.00;;;10.10
80496;BMP180;69819;48.798;11.770;2024-01-25T02:33:17;98414.00;;;10.10
80496;BMP180;69819;48.798;11.770;2024-01-25T02:35:43;98429.00;;;10.10
80496;BMP180;69819;48.798;11.770;2024-01-25T02:38:08;98395.00;;;10.20
80496;BMP180;69819;48.798;11.770;2024-01-25T02:40:34;98425.00;;;10.20
80496;BMP180;69819;48.798;11.770;2024-01-25T02:43:00;98390.00;;;10.20
80496;BMP180;69819;48.798;11.770;2024-01-25T02:45:26;98386.00;;;10.20
80496;BMP180;69819;48.798;11.770;2024-01-25T02:47:52;98422.00;;;10.30
80496;BMP180;69819;48.798;11.770;2024-01-25T02:50:17;98408.00;;;10.30
80496;BMP180;69819;48.798;11.770;2024-01-25T02:52:43;98424.00;;;10.30
80496;BMP180;69819;48.798;11.770;2024-01-25T02:55:09;98421.00;;;10.30
80496;BMP180;69819;48.798;11.770;2024-01-25T02:57:35;98412.00;;;10.30
80496;BMP180;69819;48.798;11.770;2024-01-25T03:00:01;98393.00;;;10.30
80496;BMP180;69819;48.798;11.770;2024-01-25T03:02:27;98419.00;;;10.30
80496;BMP180;69819;48.798;11.770;2024-01-25T03:04:52;98400.00;;;10.40
80496;BMP180;69819;48.798;11.770;2024-01-25T03:07:18;98431.00;;;10.40
80496;BMP180;69819;48.798;11.770;2024-01-25T03:09:44;98411.00;;;10.40
80496;BMP180;69819;48.798;11.770;2024-01-25T03:12:10;98432.00;;;10.40
80496;BMP180;69819;48.798;11.770;2024-01-25T03:14:36;98412.00;;;10.40
80496;BMP180;69819;48.798;11.770;2024-01-25T03:17:02;98430.00;;;10.40
80496;BMP180;69819;48.798;11.770;2024-01-25T03:19:28;98420.00;;;10.40
80496;BMP180;69819;48.798;11.770;2024-01-25T03:21:54;98435.00;;;10.40
80496;BMP180;69819;48.798;11.770;2024-01-25T03:24:21;98440.00;;;10.50
80496;BMP180;69819;48.798;11.770;2024-01-25T03:26:47;98435.00;;;10.50
80496;BMP180;69819;48.798;11.770;2024-01-25T03:29:14;98446.00;;;10.50
80496;BMP180;69819;48.798;11.770;2024-01-25T03:31:39;98424.00;;;10.50
80496;BMP180;69819;48.798;11.770;2024-01-25T03:34:05;98438.00;;;10.50
80496;BMP180;69819;48.798;11.770;2024-01-25T03:36:31;98439.00;;;10.40
80496;BMP180;69819;48.798;11.770;2024-01-25T03:38:57;98429.00;;;10.50
80496;BMP180;69819;48.798;11.770;2024-01-25T03:41:23;98445.00;;;10.50
80496;BMP180;69819;48.798;11.770;2024-01-25T03:43:50;98438.00;;;10.50
80496;BMP180;69819;48.798;11.770;2024-01-25T03:46:16;98412.00;;;10.50
80496;BMP180;69819;48.798;11.770;2024-01-25T03:48:42;98434.00;;;10.50
80496;BMP180;69819;48.798;11.770;2024-01-25T03:51:08;98412.00;;;10.40
80496;BMP180;69819;48.798;11.770;2024-01-25T03:53:34;98427.00;;;10.40
80496;BMP180;69819;48.798;11.770;2024-01-25T03:56:00;98440.00;;;10.40
80496;BMP180;69819;48.798;11.770;2024-01-25T03:58:26;98432.00;;;10.40
80496;BMP180;69819;48.798;11.770;2024-01-25T04:00:52;98440.00;;;10.40
80496;BMP180;69819;48.798;11.770;2024-01-25T04:03:18;98418.00;;;10.40
80496;BMP180;69819;48.798;11.770;2024-01-25T04:05:43;98435.00;;;10.40
80496;BMP180;69819;48.798;11.770;2024-01-25T04:08:10;98450.00;;;10.30
80496;BMP180;69819;48.798;11.770;2024-01-25T04:10:36;98426.00;;;10.40
80496;BMP180;69819;48.798;11.770;2024-01-25T04:13:01;98437.00;;;10.40
80496;BMP180;69819;48.798;11.770;2024-01-25T04:15:30;98433.00;;;10.40
80496;BMP180;69819;48.798;11.770;2024-01-25T04:17:55;98442.00;;;10.40
80496;BMP180;69819;48.798;11.770;2024-01-25T04:20:22;98432.00;;;10.50
80496;BMP180;69819;48.798;11.770;2024-01-25T04:22:48;98457.00;;;10.50
80496;BMP180;69819;48.798;11.770;2024-01-25T04:25:14;98446.00;;;10.50
80496;BMP180;69819;48.798;11.770;2024-01-25T04:27:39;98443.00;;;10.50
80496;BMP180;69819;48.798;11.770;2024-01-25T04:30:09;98451.00;;;10.50
80496;BMP180;69819;48.798;11.770;2024-01-25T04:32:35;98467.00;;;10.50
80496;BMP180;69819;48.798;11.770;2024-01-25T04:35:01;98465.00;;;10.50
80496;BMP180;69819;48.798;11.770;2024-01-25T04:37:27;98452.00;;;10.50
80496;BMP180;69819;48.798;11.770;2024-01-25T04:39:53;98449.00;;;10.50
80496;BMP180;69819;48.798;11.770;2024-01-25T04:42:18;98476.00;;;10.50
80496;BMP180;69819;48.798;11.770;2024-01-25T04:44:45;98462.00;;;10.40
80496;BMP180;69819;48.798;11.770;2024-01-25T04:47:10;98448.00;;;10.40
80496;BMP180;69819;48.798;11.770;2024-01-25T04:49:36;98479.00;;;10.40
80496;BMP180;69819;48.798;11.770;2024-01-25T04:52:02;98479.00;;;10.40
80496;BMP180;69819;48.798;11.770;2024-01-25T04:54:28;98455.00;;;10.40
80496;BMP180;69819;48.798;11.770;2024-01-25T04:56:54;98473.00;;;10.50
80496;BMP180;69819;48.798;11.770;2024-01-25T04:59:20;98429.00;;;10.50
80496;BMP180;69819;48.798;11.770;2024-01-25T05:01:46;98491.00;;;10.50
80496;BMP180;69819;48.798;11.770;2024-01-25T05:04:12;98461.00;;;10.50
80496;BMP180;69819;48.798;11.770;2024-01-25T05:06:38;98490.00;;;10.50
80496;BMP180;69819;48.798;11.770;2024-01-25T05:09:04;98489.00;;;10.50
80496;BMP180;69819;48.798;11.770;2024-01-25T05:11:29;98492.00;;;10.50
80496;BMP180;69819;48.798;11.770;2024-01-25T05:13:55;98491.00;;;10.40
80496;BMP180;69819;48.798;11.770;2024-01-25T05:16:21;98483.00;;;10.40
80496;BMP180;69819;48.798;11.770;2024-01-25T05:18:47;98485.00;;;10.60
80496;BMP180;69819;48.798;11.770;2024-01-25T05:21:12;98491.00;;;10.60
80496;BMP180;69819;48.798;11.770;2024-01-25T05:23:38;98504.00;;;10.60
80496;BMP180;69819;48.798;11.770;2024-01-25T05:26:05;98508.00;;;10.60
80496;BMP180;69819;48.798;11.770;2024-01-25T05:28:31;98507.00;;;10.60
80496;BMP180;69819;48.798;11.770;2024-01-25T05:30:57;98502.00;;;10.60
80496;BMP180;69819;48.798;11.770;2024-01-25T05:33:23;98509.00;;;10.60
80496;BMP180;69819;48.798;11.770;2024-01-25T05:35:49;98520.00;;;10.60
80496;BMP180;69819;48.798;11.770;2024-01-25T05:38:15;98513.00;;;10.60
80496;BMP180;69819;48.798;11.770;2024-01-25T05:40:42;98506.00;;;10.60
80496;BMP180;69819;48.798;11.770;2024-01-25T05:43:08;98522.00;;;10.50
80496;BMP180;69819;48.798;11.770;2024-01-25T05:45:33;98512.00;;;10.50
80496;BMP180;69819;48.798;11.770;2024-01-25T05:48:00;98496.00;;;10.50
80496;BMP180;69819;48.798;11.770;2024-01-25T05:50:26;98494.00;;;10.50
80496;BMP180;69819;48.798;11.770;2024-01-25T05:52:52;98523.00;;;10.50
80496;BMP180;69819;48.798;11.770;2024-01-25T05:55:17;98529.00;;;10.50
80496;BMP180;69819;48.798;11.770;2024-01-25T05:57:44;98531.00;;;10.50
80496;BMP180;69819;48.798;11.770;2024-01-25T06:00:12;98550.00;;;10.40
80496;BMP180;69819;48.798;11.770;2024-01-25T06:02:39;98527.00;;;10.40
80496;BMP180;69819;48.798;11.770;2024-01-25T06:05:05;98543.00;;;10.40
80496;BMP180;69819;48.798;11.770;2024-01-25T06:07:30;98540.00;;;10.40
80496;BMP180;69819;48.798;11.770;2024-01-25T06:09:56;98559.00;;;10.40
80496;BMP180;69819;48.798;11.770;2024-01-25T06:12:22;98555.00;;;10.40
80496;BMP180;69819;48.798;11.770;2024-01-25T06:14:48;98572.00;;;10.40
80496;BMP180;69819;48.798;11.770;2024-01-25T06:17:14;98551.00;;;10.40
80496;BMP180;69819;48.798;11.770;2024-01-25T06:19:39;98543.00;;;10.40
80496;BMP180;69819;48.798;11.770;2024-01-25T06:22:05;98577.00;;;10.30
80496;BMP180;69819;48.798;11.770;2024-01-25T06:24:31;98586.00;;;10.30
80496;BMP180;69819;48.798;11.770;2024-01-25T06:26:57;98580.00;;;10.20
80496;BMP180;69819;48.798;11.770;2024-01-25T06:29:23;98558.00;;;10.10
80496;BMP180;69819;48.798;11.770;2024-01-25T06:31:49;98581.00;;;10.10
80496;BMP180;69819;48.798;11.770;2024-01-25T06:34:14;98602.00;;;10.00
80496;BMP180;69819;48.798;11.770;2024-01-25T06:36:40;98577.00;;;9.90
80496;BMP180;69819;48.798;11.770;2024-01-25T06:39:06;98561.00;;;9.80
80496;BMP180;69819;48.798;11.770;2024-01-25T06:41:32;98547.00;;;9.80
80496;BMP180;69819;48.798;11.770;2024-01-25T06:43:59;98565.00;;;9.70
80496;BMP180;69819;48.798;11.770;2024-01-25T06:46:25;98572.00;;;9.50
80496;BMP180;69819;48.798;11.770;2024-01-25T06:48:52;98589.00;;;9.40
80496;BMP180;69819;48.798;11.770;2024-01-25T06:51:18;98552.00;;;8.70
80496;BMP180;69819;48.798;11.770;2024-01-25T06:53:43;98572.00;;;9.40
80496;BMP180;69819;48.798;11.770;2024-01-25T06:56:09;98536.00;;;9.30
80496;BMP180;69819;48.798;11.770;2024-01-25T06:58:35;98544.00;;;9.20
80496;BMP180;69819;48.798;11.770;2024-01-25T07:01:01;98534.00;;;9.10
80496;BMP180;69819;48.798;11.770;2024-01-25T07:03:28;98558.00;;;9.00
80496;BMP180;69819;48.798;11.770;2024-01-25T07:05:53;98548.00;;;9.00
80496;BMP180;69819;48.798;11.770;2024-01-25T07:08:19;98521.00;;;8.90
80496;BMP180;69819;48.798;11.770;2024-01-25T07:10:45;98519.00;;;8.90
80496;BMP180;69819;48.798;11.770;2024-01-25T07:13:11;98536.00;;;8.80
80496;BMP180;69819;48.798;11.770;2024-01-25T07:15:37;98556.00;;;8.80
80496;BMP180;69819;48.798;11.770;2024-01-25T07:18:03;98573.00;;;8.80
80496;BMP180;69819;48.798;11.770;2024-01-25T07:20:29;98590.00;;;8.80
80496;BMP180;69819;48.798;11.770;2024-01-25T07:22:55;98567.00;;;8.80
80496;BMP180;69819;48.798;11.770;2024-01-25T07:25:20;98580.00;;;8.80
80496;BMP180;69819;48.798;11.770;2024-01-25T07:27:46;98559.00;;;8.90
80496;BMP180;69819;48.798;11.770;2024-01-25T07:30:13;98577.00;;;8.90
80496;BMP180;69819;48.798;11.770;2024-01-25T07:32:39;98570.00;;;9.10
80496;BMP180;69819;48.798;11.770;2024-01-25T07:35:11;98590.00;;;9.20
80496;BMP180;69819;48.798;11.770;2024-01-25T07:37:38;98582.00;;;9.40
80496;BMP180;69819;48.798;11.770;2024-01-25T07:40:07;98593.00;;;9.60
80496;BMP180;69819;48.798;11.770;2024-01-25T07:42:33;98602.00;;;9.80
80496;BMP180;69819;48.798;11.770;2024-01-25T07:44:59;98614.00;;;10.00
80496;BMP180;69819;48.798;11.770;2024-01-25T07:47:24;98575.00;;;10.20
80496;BMP180;69819;48.798;11.770;2024-01-25T07:49:50;98613.00;;;10.40
80496;BMP180;69819;48.798;11.770;2024-01-25T07:52:16;98622.00;;;10.60
80496;BMP180;69819;48.798;11.770;2024-01-25T07:54:43;98614.00;;;10.90
80496;BMP180;69819;48.798;11.770;2024-01-25T07:57:10;98619.00;;;11.10
80496;BMP180;69819;48.798;11.770;2024-01-25T07:59:36;98622.00;;;11.40
80496;BMP180;69819;48.798;11.770;2024-01-25T08:02:01;98624.00;;;11.60
80496;BMP180;69819;48.798;11.770;2024-01-25T08:04:27;98634.00;;;11.90
80496;BMP180;69819;48.798;11.770;2024-01-25T08:06:53;98633.00;;;12.10
80496;BMP180;69819;48.798;11.770;2024-01-25T08:09:19;98645.00;;;12.40
80496;BMP180;69819;48.798;11.770;2024-01-25T08:11:44;98638.00;;;12.60
80496;BMP180;69819;48.798;11.770;2024-01-25T08:14:11;98658.00;;;12.90
80496;BMP180;69819;48.798;11.770;2024-01-25T08:16:37;98649.00;;;13.10
80496;BMP180;69819;48.798;11.770;2024-01-25T08:19:03;98658.00;;;13.30
80496;BMP180;69819;48.798;11.770;2024-01-25T08:21:30;98652.00;;;13.50
80496;BMP180;69819;48.798;11.770;2024-01-25T08:23:56;98663.00;;;13.70
80496;BMP180;69819;48.798;11.770;2024-01-25T08:26:22;98672.00;;;13.90
80496;BMP180;69819;48.798;11.770;2024-01-25T08:28:47;98668.00;;;14.10
80496;BMP180;69819;48.798;11.770;2024-01-25T08:31:13;98665.00;;;14.30
80496;BMP180;69819;48.798;11.770;2024-01-25T08:33:40;98696.00;;;14.40
80496;BMP180;69819;48.798;11.770;2024-01-25T08:36:10;98662.00;;;14.60
80496;BMP180;69819;48.798;11.770;2024-01-25T08:38:36;98669.00;;;14.80
80496;BMP180;69819;48.798;11.770;2024-01-25T08:41:02;98697.00;;;14.90
80496;BMP180;69819;48.798;11.770;2024-01-25T08:43:28;98682.00;;;15.10
80496;BMP180;69819;48.798;11.770;2024-01-25T08:45:54;98693.00;;;15.20
80496;BMP180;69819;48.798;11.770;2024-01-25T08:48:20;98701.00;;;15.30
80496;BMP180;69819;48.798;11.770;2024-01-25T08:50:46;98656.00;;;15.50
80496;BMP180;69819;48.798;11.770;2024-01-25T08:53:12;98705.00;;;15.60
80496;BMP180;69819;48.798;11.770;2024-01-25T08:55:38;98677.00;;;15.70
80496;BMP180;69819;48.798;11.770;2024-01-25T08:58:04;98678.00;;;15.90
80496;BMP180;69819;48.798;11.770;2024-01-25T09:00:29;98716.00;;;15.90
80496;BMP180;69819;48.798;11.770;2024-01-25T09:02:55;98675.00;;;16.00
80496;BMP180;69819;48.798;11.770;2024-01-25T09:05:21;98694.00;;;15.90
80496;BMP180;69819;48.798;11.770;2024-01-25T09:07:47;98698.00;;;15.90
80496;BMP180;69819;48.798;11.770;2024-01-25T09:10:13;98709.00;;;15.80
80496;BMP180;69819;48.798;11.770;2024-01-25T09:12:40;98707.00;;;15.70
80496;BMP180;69819;48.798;11.770;2024-01-25T09:15:07;98714.00;;;15.60
80496;BMP180;69819;48.798;11.770;2024-01-25T09:17:33;98701.00;;;15.60
80496;BMP180;69819;48.798;11.770;2024-01-25T09:19:59;98699.00;;;15.50
80496;BMP180;69819;48.798;11.770;2024-01-25T09:22:25;98729.00;;;15.50
80496;BMP180;69819;48.798;11.770;2024-01-25T09:24:53;98723.00;;;15.30
80496;BMP180;69819;48.798;11.770;2024-01-25T09:27:19;98739.00;;;15.40
80496;BMP180;69819;48.798;11.770;2024-01-25T09:29:44;98712.00;;;15.30
80496;BMP180;69819;48.798;11.770;2024-01-25T09:32:10;98733.00;;;15.20
80496;BMP180;69819;48.798;11.770;2024-01-25T09:34:39;98707.00;;;15.20
80496;BMP180;69819;48.798;11.770;2024-01-25T09:37:05;98730.00;;;15.10
80496;BMP180;69819;48.798;11.770;2024-01-25T09:39:32;98732.00;;;15.10
80496;BMP180;69819;48.798;11.770;2024-01-25T09:41:58;98736.00;;;15.00
80496;BMP180;69819;48.798;11.770;2024-01-25T09:44:24;98741.00;;;14.90
80496;BMP180;69819;48.798;11.770;2024-01-25T09:46:51;98707.00;;;14.80
80496;BMP180;69819;48.798;11.770;2024-01-25T09:49:17;98720.00;;;14.80
80496;BMP180;69819;48.798;11.770;2024-01-25T09:51:44;98744.00;;;14.80
80496;BMP180;69819;48.798;11.770;2024-01-25T09:54:11;98728.00;;;14.80
80496;BMP180;69819;48.798;11.770;2024-01-25T09:56:40;98747.00;;;14.90
80496;BMP180;69819;48.798;11.770;2024-01-25T09:59:08;98757.00;;;14.90
80496;BMP180;69819;48.798;11.770;2024-01-25T10:01:34;98762.00;;;14.90
80496;BMP180;69819;48.798;11.770;2024-01-25T10:04:00;98762.00;;;15.00
80496;BMP180;69819;48.798;11.770;2024-01-25T10:06:26;98731.00;;;15.00
80496;BMP180;69819;48.798;11.770;2024-01-25T10:08:53;98762.00;;;15.00
80496;BMP180;69819;48.798;11.770;2024-01-25T10:11:19;98732.00;;;15.00
80496;BMP180;69819;48.798;11.770;2024-01-25T10:13:49;98765.00;;;15.00
80496;BMP180;69819;48.798;11.770;2024-01-25T10:16:19;98762.00;;;15.10
80496;BMP180;69819;48.798;11.770;2024-01-25T10:18:49;98753.00;;;15.10
80496;BMP180;69819;48.798;11.770;2024-01-25T10:21:15;98767.00;;;15.10
80496;BMP180;69819;48.798;11.770;2024-01-25T10:23:45;98766.00;;;15.10
80496;BMP180;69819;48.798;11.770;2024-01-25T10:26:13;98753.00;;;15.10
80496;BMP180;69819;48.798;11.770;2024-01-25T10:28:40;98771.00;;;15.10
80496;BMP180;69819;48.798;11.770;2024-01-25T10:31:05;98770.00;;;15.10
80496;BMP180;69819;48.798;11.770;2024-01-25T10:33:34;98765.00;;;15.10
80496;BMP180;69819;48.798;11.770;2024-01-25T10:36:01;98764.00;;;15.10
80496;BMP180;69819;48.798;11.770;2024-01-25T10:38:33;98771.00;;;15.10
80496;BMP180;69819;48.798;11.770;2024-01-25T10:41:02;98774.00;;;15.20
80496;BMP180;69819;48.798;11.770;2024-01-25T10:43:29;98756.00;;;15.20
80496;BMP180;69819;48.798;11.770;2024-01-25T10:45:59;98764.00;;;15.30
80496;BMP180;69819;48.798;11.770;2024-01-25T10:48:26;98743.00;;;15.20
80496;BMP180;69819;48.798;11.770;2024-01-25T10:50:56;98746.00;;;15.20
80496;BMP180;69819;48.798;11.770;2024-01-25T10:53:23;98735.00;;;15.20
80496;BMP180;69819;48.798;11.770;2024-01-25T10:55:51;98718.00;;;15.20
80496;BMP180;69819;48.798;11.770;2024-01-25T10:58:17;98757.00;;;15.20
80496;BMP180;69819;48.798;11.770;2024-01-25T11:00:55;98745.00;;;15.10
80496;BMP180;69819;48.798;11.770;2024-01-25T11:03:27;98746.00;;;15.10
80496;BMP180;69819;48.798;11.770;2024-01-25T11:06:12;98737.00;;;15.00
80496;BMP180;69819;48.798;11.770;2024-01-25T11:08:38;98733.00;;;15.00
80496;BMP180;69819;48.798;11.770;2024-01-25T11:11:11;98723.00;;;14.90
80496;BMP180;69819;48.798;11.770;2024-01-25T11:13:42;98710.00;;;14.80
80496;BMP180;69819;48.798;11.770;2024-01-25T11:16:17;98723.00;;;14.60
80496;BMP180;69819;48.798;11.770;2024-01-25T11:18:50;98711.00;;;14.50
80496;BMP180;69819;48.798;11.770;2024-01-25T11:21:39;98718.00;;;14.50
80496;BMP180;69819;48.798;11.770;2024-01-25T11:24:21;98706.00;;;14.40
80496;BMP180;69819;48.798;11.770;2024-01-25T11:26:49;98715.00;;;14.50
80496;BMP180;69819;48.798;11.770;2024-01-25T11:29:16;98665.00;;;14.50
80496;BMP180;69819;48.798;11.770;2024-01-25T11:31:47;98710.00;;;14.50
80496;BMP180;69819;48.798;11.770;2024-01-25T11:34:14;98679.00;;;14.60
80496;BMP180;69819;48.798;11.770;2024-01-25T11:36:42;98686.00;;;14.70
80496;BMP180;69819;48.798;11.770;2024-01-25T11:39:13;98671.00;;;14.80
80496;BMP180;69819;48.798;11.770;2024-01-25T11:41:39;98675.00;;;14.90
80496;BMP180;69819;48.798;11.770;2024-01-25T11:44:05;98692.00;;;14.90
80496;BMP180;69819;48.798;11.770;2024-01-25T11:46:31;98702.00;;;15.00
80496;BMP180;69819;48.798;11.770;2024-01-25T11:48:59;98670.00;;;14.90
80496;BMP180;69819;48.798;11.770;2024-01-25T11:51:25;98699.00;;;15.10
80496;BMP180;69819;48.798;11.770;2024-01-25T11:53:51;98688.00;;;15.20
80496;BMP180;69819;48.798;11.770;2024-01-25T11:56:22;98681.00;;;15.20
80496;BMP180;69819;48.798;11.770;2024-01-25T11:58:50;98668.00;;;15.30
80496;BMP180;69819;48.798;11.770;2024-01-25T12:01:17;98701.00;;;15.30
80496;BMP180;69819;48.798;11.770;2024-01-25T12:03:44;98694.00;;;15.40
80496;BMP180;69819;48.798;11.770;2024-01-25T12:06:09;98685.00;;;15.40
80496;BMP180;69819;48.798;11.770;2024-01-25T12:08:36;98694.00;;;15.40
80496;BMP180;69819;48.798;11.770;2024-01-25T12:11:09;98685.00;;;15.40
80496;BMP180;69819;48.798;11.770;2024-01-25T12:13:38;98670.00;;;15.30
80496;BMP180;69819;48.798;11.770;2024-01-25T12:16:05;98672.00;;;15.30
80496;BMP180;69819;48.798;11.770;2024-01-25T12:18:32;98672.00;;;15.30
80496;BMP180;69819;48.798;11.770;2024-01-25T12:20:59;98685.00;;;15.20
80496;BMP180;69819;48.798;11.770;2024-01-25T12:23:38;98661.00;;;15.20
80496;BMP180;69819;48.798;11.770;2024-01-25T12:26:06;98681.00;;;15.20
80496;BMP180;69819;48.798;11.770;2024-01-25T12:28:32;98644.00;;;15.30
80496;BMP180;69819;48.798;11.770;2024-01-25T12:31:03;98667.00;;;15.20
80496;BMP180;69819;48.798;11.770;2024-01-25T12:33:32;98668.00;;;15.20
80496;BMP180;69819;48.798;11.770;2024-01-25T12:35:58;98676.00;;;15.20
80496;BMP180;69819;48.798;11.770;2024-01-25T12:38:24;98682.00;;;15.30
80496;BMP180;69819;48.798;11.770;2024-01-25T12:40:52;98650.00;;;15.20
80496;BMP180;69819;48.798;11.770;2024-01-25T12:43:19;98656.00;;;15.20
80496;BMP180;69819;48.798;11.770;2024-01-25T12:45:46;98645.00;;;15.30
80496;BMP180;69819;48.798;11.770;2024-01-25T12:48:13;98631.00;;;15.30
80496;BMP180;69819;48.798;11.770;2024-01-25T12:50:38;98636.00;;;15.30
80496;BMP180;69819;48.798;11.770;2024-01-25T12:53:05;98650.00;;;15.30
80496;BMP180;69819;48.798;11.770;2024-01-25T12:55:32;98653.00;;;15.30
80496;BMP180;69819;48.798;11.770;2024-01-25T12:57:59;98649.00;;;15.20
80496;BMP180;69819;48.798;11.770;2024-01-25T13:00:25;98626.00;;;15.20
80496;BMP180;69819;48.798;11.770;2024-01-25T13:02:51;98649.00;;;15.20
80496;BMP180;69819;48.798;11.770;2024-01-25T13:05:17;98643.00;;;15.20
80496;BMP180;69819;48.798;11.770;2024-01-25T13:07:43;98650.00;;;15.20
80496;BMP180;69819;48.798;11.770;2024-01-25T13:10:09;98625.00;;;15.20
80496;BMP180;69819;48.798;11.770;2024-01-25T13:12:38;98611.00;;;15.20
80496;BMP180;69819;48.798;11.770;2024-01-25T13:15:05;98636.00;;;15.20
80496;BMP180;69819;48.798;11.770;2024-01-25T13:17:31;98640.00;;;15.10
80496;BMP180;69819;48.798;11.770;2024-01-25T13:20:00;98617.00;;;15.00
80496;BMP180;69819;48.798;11.770;2024-01-25T13:22:26;98613.00;;;15.00
80496;BMP180;69819;48.798;11.770;2024-01-25T13:24:52;98635.00;;;15.00
80496;BMP180;69819;48.798;11.770;2024-01-25T13:27:18;98635.00;;;14.90
80496;BMP180;69819;48.798;11.770;2024-01-25T13:29:44;98639.00;;;14.90
80496;BMP180;69819;48.798;11.770;2024-01-25T13:32:10;98632.00;;;14.80
80496;BMP180;69819;48.798;11.770;2024-01-25T13:34:36;98626.00;;;14.80
80496;BMP180;69819;48.798;11.770;2024-01-25T13:37:02;98634.00;;;14.80
80496;BMP180;69819;48.798;11.770;2024-01-25T13:39:28;98613.00;;;14.80
80496;BMP180;69819;48.798;11.770;2024-01-25T13:41:54;98620.00;;;14.70
80496;BMP180;69819;48.798;11.770;2024-01-25T13:44:22;98625.00;;;14.70
80496;BMP180;69819;48.798;11.770;2024-01-25T13:46:48;98607.00;;;14.80
80496;BMP180;69819;48.798;11.770;2024-01-25T13:49:14;98617.00;;;14.70
80496;BMP180;69819;48.798;11.770;2024-01-25T13:51:39;98596.00;;;14.70
80496;BMP180;69819;48.798;11.770;2024-01-25T13:54:05;98609.00;;;14.70